createdAt,value
2023-05-07T00:00:56.056Z,26.70
2023-05-07T00:03:23.551Z,26.40
2023-05-07T00:05:50.137Z,26.63
2023-05-07T00:08:16.653Z,28.40
2023-05-07T00:10:43.302Z,27.47
2023-05-07T00:13:09.959Z,27.00
2023-05-07T00:15:36.726Z,29.00
2023-05-07T00:18:03.333Z,28.30
2023-05-07T00:20:29.872Z,28.93
2023-05-07T00:22:56.607Z,28.43
2023-05-07T00:25:23.468Z,29.83
2023-05-07T00:27:49.954Z,27.33
2023-05-07T00:30:16.534Z,27.80
2023-05-07T00:32:43.210Z,29.17
2023-05-07T00:35:10.138Z,28.37
2023-05-07T00:37:36.955Z,28.43
2023-05-07T00:40:05.555Z,27.73
2023-05-07T00:42:33.361Z,29.40
2023-05-07T00:45:00.274Z,101.33
2023-05-07T00:47:26.895Z,29.60
2023-05-07T00:49:53.497Z,13.37
2023-05-07T00:52:21.204Z,25.70
2023-05-07T00:54:48.119Z,26.10
2023-05-07T00:57:15.698Z,28.47
2023-05-07T00:59:42.561Z,27.30
2023-05-07T01:02:09.520Z,28.83
2023-05-07T01:04:36.281Z,27.33
2023-05-07T01:07:03.309Z,26.13
2023-05-07T01:09:30.433Z,25.40
2023-05-07T01:11:58.497Z,25.87
2023-05-07T01:14:25.363Z,27.40
2023-05-07T01:16:54.908Z,27.70
2023-05-07T01:19:23.595Z,25.20
2023-05-07T01:21:52.072Z,26.00
2023-05-07T01:24:19.862Z,27.33
2023-05-07T01:26:46.723Z,26.13
2023-05-07T01:29:15.953Z,26.13
2023-05-07T01:31:43.534Z,28.70
2023-05-07T01:34:10.925Z,25.90
2023-05-07T01:36:38.247Z,28.60
2023-05-07T01:39:05.458Z,28.97
2023-05-07T01:41:32.118Z,29.90
2023-05-07T01:43:59.128Z,31.43
2023-05-07T01:46:27.210Z,31.57
2023-05-07T01:48:54.785Z,33.80
2023-05-07T01:51:23.133Z,32.17
2023-05-07T01:53:51.787Z,32.53
2023-05-07T01:56:19.756Z,32.40
2023-05-07T01:58:47.375Z,32.80
2023-05-07T02:01:14.354Z,33.27
2023-05-07T02:03:41.551Z,33.23
2023-05-07T02:06:18.280Z,30.57
2023-05-07T02:08:44.797Z,33.37
2023-05-07T02:11:12.458Z,30.83
2023-05-07T02:13:38.915Z,31.70
2023-05-07T02:16:06.646Z,29.77
2023-05-07T02:18:33.327Z,28.70
2023-05-07T02:21:00.136Z,28.33
2023-05-07T02:23:27.062Z,28.93
2023-05-07T02:25:53.914Z,27.03
2023-05-07T02:28:20.437Z,28.13
2023-05-07T02:30:53.808Z,26.20
2023-05-07T02:33:21.283Z,27.30
2023-05-07T02:35:48.187Z,24.40
2023-05-07T02:38:16.123Z,23.87
2023-05-07T02:40:44.004Z,23.70
2023-05-07T02:43:10.946Z,23.77
2023-05-07T02:45:39.260Z,25.67
2023-05-07T02:48:08.065Z,24.83
2023-05-07T02:50:34.550Z,27.00
2023-05-07T02:53:01.573Z,24.60
2023-05-07T02:55:28.409Z,28.73
2023-05-07T02:57:54.954Z,28.03
2023-05-07T03:00:21.839Z,27.23
2023-05-07T03:03:08.672Z,29.70
2023-05-07T03:05:35.494Z,28.80
2023-05-07T03:08:01.995Z,29.33
2023-05-07T03:10:28.655Z,29.20
2023-05-07T03:12:55.356Z,30.37
2023-05-07T03:15:22.664Z,28.80
2023-05-07T03:17:49.649Z,30.17
2023-05-07T03:20:16.806Z,32.10
2023-05-07T03:22:43.525Z,30.30
2023-05-07T03:25:10.320Z,31.97
2023-05-07T03:27:36.897Z,33.00
2023-05-07T03:30:03.880Z,31.77
2023-05-07T03:32:31.287Z,32.50
2023-05-07T03:34:58.027Z,33.33
2023-05-07T03:37:24.570Z,33.00
2023-05-07T03:39:51.191Z,33.10
2023-05-07T03:42:18.687Z,33.03
2023-05-07T03:44:48.145Z,31.40
2023-05-07T03:47:14.742Z,30.23
2023-05-07T03:49:41.374Z,29.60
2023-05-07T03:52:07.922Z,28.43
2023-05-07T03:54:34.477Z,30.17
2023-05-07T03:57:01.272Z,31.97
2023-05-07T03:59:28.059Z,32.30
2023-05-07T04:01:55.226Z,30.37
2023-05-07T04:04:24.073Z,28.67
2023-05-07T04:06:50.710Z,28.60
2023-05-07T04:09:17.214Z,28.87
2023-05-07T04:11:45.321Z,27.90
2023-05-07T04:14:12.179Z,29.90
2023-05-07T04:16:39.023Z,31.33
2023-05-07T04:19:06.732Z,28.87
2023-05-07T04:21:33.263Z,29.83
2023-05-07T04:23:59.930Z,28.77
2023-05-07T04:26:26.566Z,28.00
2023-05-07T04:28:53.315Z,31.67
2023-05-07T04:31:19.884Z,29.00
2023-05-07T04:33:51.644Z,27.97
2023-05-07T04:36:18.672Z,26.50
2023-05-07T04:38:52.857Z,26.50
2023-05-07T04:41:20.360Z,29.00
2023-05-07T04:43:47.098Z,26.70
2023-05-07T04:46:15.575Z,27.33
2023-05-07T04:48:43.341Z,25.10
2023-05-07T04:51:09.903Z,25.77
2023-05-07T04:53:36.429Z,24.83
2023-05-07T04:56:03.162Z,24.87
2023-05-07T04:58:40.700Z,27.70
2023-05-07T05:01:07.851Z,23.47
2023-05-07T05:03:34.591Z,24.97
2023-05-07T05:06:01.514Z,22.40
2023-05-07T05:08:32.349Z,26.17
2023-05-07T05:11:01.410Z,26.50
2023-05-07T05:13:28.007Z,26.73
2023-05-07T05:15:54.984Z,25.83
2023-05-07T05:18:21.974Z,26.30
2023-05-07T05:20:48.533Z,25.93
2023-05-07T05:23:15.692Z,25.57
2023-05-07T05:25:42.319Z,24.60
2023-05-07T05:28:11.732Z,24.70
2023-05-07T05:30:38.330Z,22.87
2023-05-07T05:33:05.001Z,24.53
2023-05-07T05:35:32.758Z,23.53
2023-05-07T05:38:03.304Z,24.00
2023-05-07T05:40:30.049Z,21.77
2023-05-07T05:42:57.038Z,24.40
2023-05-07T05:45:24.026Z,19.30
2023-05-07T05:47:51.107Z,17.83
2023-05-07T05:50:18.628Z,18.03
2023-05-07T05:52:45.285Z,16.30
2023-05-07T05:55:12.416Z,14.60
2023-05-07T05:57:39.100Z,12.80
2023-05-07T06:00:06.128Z,12.60
2023-05-07T06:02:34.114Z,10.43
2023-05-07T06:05:01.195Z,10.10
2023-05-07T06:07:27.873Z,12.03
2023-05-07T06:09:54.324Z,11.83
2023-05-07T06:12:21.699Z,12.13
2023-05-07T06:14:48.868Z,10.27
2023-05-07T06:17:18.246Z,10.60
2023-05-07T06:19:46.052Z,10.33
2023-05-07T06:22:13.805Z,11.10
2023-05-07T06:24:40.510Z,9.23
2023-05-07T06:27:08.417Z,8.90
2023-05-07T06:29:35.271Z,8.73
2023-05-07T06:32:10.402Z,8.50
2023-05-07T06:34:37.261Z,10.83
2023-05-07T06:37:03.959Z,10.30
2023-05-07T06:39:47.372Z,9.60
2023-05-07T06:42:14.040Z,10.10
2023-05-07T06:44:43.145Z,10.97
2023-05-07T06:47:15.147Z,10.30
2023-05-07T06:49:42.793Z,7.10
2023-05-07T06:52:09.410Z,8.40
2023-05-07T06:54:36.360Z,8.67
2023-05-07T06:57:03.351Z,7.57
2023-05-07T06:59:30.894Z,7.80
2023-05-07T07:01:57.584Z,7.60
2023-05-07T07:04:25.487Z,8.17
2023-05-07T07:06:59.895Z,8.40
2023-05-07T07:09:26.829Z,7.20
2023-05-07T07:11:54.415Z,6.87
2023-05-07T07:14:21.591Z,6.20
2023-05-07T07:16:51.056Z,6.77
2023-05-07T07:19:21.264Z,5.20
2023-05-07T07:21:50.273Z,5.87
2023-05-07T07:24:20.303Z,6.57
2023-05-07T07:26:48.715Z,6.60
2023-05-07T07:29:15.362Z,6.30
2023-05-07T07:31:43.564Z,5.53
2023-05-07T07:34:10.865Z,7.00
2023-05-07T07:36:45.598Z,5.67
2023-05-07T07:39:14.609Z,5.53
2023-05-07T07:41:42.229Z,7.60
2023-05-07T07:44:09.740Z,6.50
2023-05-07T07:46:37.706Z,7.53
2023-05-07T07:49:04.508Z,6.13
2023-05-07T07:51:31.536Z,7.03
2023-05-07T07:53:59.756Z,6.10
2023-05-07T07:56:26.926Z,6.17
2023-05-07T07:58:53.436Z,6.70
2023-05-07T08:01:20.802Z,5.60
2023-05-07T08:03:48.327Z,5.13
2023-05-07T08:06:15.251Z,5.53
2023-05-07T08:08:42.371Z,4.63
2023-05-07T08:11:09.331Z,4.97
2023-05-07T08:13:37.253Z,5.30
2023-05-07T08:16:03.986Z,3.43
2023-05-07T08:18:31.005Z,3.97
2023-05-07T08:21:01.942Z,5.60
2023-05-07T08:23:29.302Z,3.53
2023-05-07T08:25:56.443Z,3.27
2023-05-07T08:28:25.822Z,4.60
2023-05-07T08:30:52.578Z,4.33
2023-05-07T08:33:19.307Z,4.67
2023-05-07T08:35:45.986Z,5.00
2023-05-07T08:38:14.358Z,3.70
2023-05-07T08:40:44.386Z,4.03
2023-05-07T08:43:17.785Z,4.07
2023-05-07T08:45:46.626Z,3.37
2023-05-07T08:48:18.225Z,3.67
2023-05-07T08:50:51.626Z,3.30
2023-05-07T08:53:18.728Z,4.50
2023-05-07T08:55:46.185Z,4.63
2023-05-07T08:58:12.905Z,5.30
2023-05-07T09:00:41.558Z,6.03
2023-05-07T09:03:08.339Z,5.03
2023-05-07T09:05:37.053Z,5.80
2023-05-07T09:08:07.506Z,3.50
2023-05-07T09:10:34.806Z,3.90
2023-05-07T09:13:03.785Z,3.90
2023-05-07T09:15:30.450Z,4.27
2023-05-07T09:18:02.180Z,3.60
2023-05-07T09:20:31.346Z,4.50
2023-05-07T09:22:58.701Z,4.23
2023-05-07T09:25:33.323Z,3.20
2023-05-07T09:28:05.553Z,4.00
2023-05-07T09:30:32.535Z,3.20
2023-05-07T09:33:01.882Z,3.70
2023-05-07T09:35:29.115Z,3.90
2023-05-07T09:38:03.685Z,2.90
2023-05-07T09:40:32.470Z,3.90
2023-05-07T09:43:12.484Z,4.30
2023-05-07T09:45:42.710Z,3.17
2023-05-07T09:48:11.160Z,3.37
2023-05-07T09:50:49.448Z,2.77
2023-05-07T09:53:18.444Z,2.77
2023-05-07T09:55:46.376Z,3.50
2023-05-07T09:58:13.717Z,3.33
2023-05-07T10:00:41.384Z,3.13
2023-05-07T10:03:12.732Z,3.20
2023-05-07T10:06:00.199Z,2.73
2023-05-07T10:08:27.594Z,3.10
2023-05-07T10:10:57.856Z,2.30
2023-05-07T10:13:27.101Z,2.23
2023-05-07T10:15:57.197Z,1.73
2023-05-07T10:18:30.983Z,1.30
2023-05-07T10:21:05.254Z,1.10
2023-05-07T10:23:32.899Z,1.30
2023-05-07T10:26:02.214Z,1.50
2023-05-07T10:28:33.124Z,1.40
2023-05-07T10:31:05.096Z,1.90
2023-05-07T10:33:38.755Z,1.40
2023-05-07T10:36:06.546Z,1.60
2023-05-07T10:38:34.440Z,1.80
2023-05-07T10:41:02.686Z,2.10
2023-05-07T10:43:41.971Z,1.90
2023-05-07T10:46:16.939Z,1.27
2023-05-07T10:49:02.012Z,1.30
2023-05-07T10:51:36.144Z,1.00
2023-05-07T10:54:14.122Z,1.43
2023-05-07T10:56:48.791Z,1.00
2023-05-07T10:59:28.274Z,1.27
2023-05-07T11:02:05.500Z,1.60
2023-05-07T11:04:40.031Z,1.20
2023-05-07T11:07:26.928Z,0.87
2023-05-07T11:09:59.315Z,1.20
2023-05-07T11:12:37.034Z,1.40
2023-05-07T11:15:06.056Z,1.20
2023-05-07T11:17:52.711Z,1.30
2023-05-07T11:20:21.514Z,1.80
2023-05-07T11:22:56.604Z,1.80
2023-05-07T11:25:39.158Z,1.63
2023-05-07T11:28:17.608Z,1.57
2023-05-07T11:30:55.382Z,1.30
2023-05-07T11:33:23.419Z,1.80
2023-05-07T11:35:55.408Z,2.00
2023-05-07T11:38:25.976Z,1.30
2023-05-07T11:40:57.422Z,1.43
2023-05-07T11:43:24.003Z,1.67
2023-05-07T11:45:51.127Z,2.30
2023-05-07T11:48:18.095Z,2.63
2023-05-07T11:50:54.479Z,1.70
2023-05-07T11:53:21.471Z,1.87
2023-05-07T11:55:48.048Z,2.20
2023-05-07T11:58:21.238Z,1.70
2023-05-07T12:00:51.336Z,2.47
2023-05-07T12:03:19.096Z,2.13
2023-05-07T12:05:46.346Z,1.80
2023-05-07T12:08:17.181Z,2.40
2023-05-07T12:10:44.290Z,2.10
2023-05-07T12:13:21.530Z,2.77
2023-05-07T12:15:51.789Z,2.60
2023-05-07T12:18:18.993Z,2.03
2023-05-07T12:20:46.239Z,2.37
2023-05-07T12:23:12.818Z,2.17
2023-05-07T12:25:39.997Z,2.30
2023-05-07T12:28:07.119Z,2.03
2023-05-07T12:30:37.830Z,2.80
2023-05-07T12:33:04.455Z,2.83
2023-05-07T12:35:40.635Z,1.90
2023-05-07T12:38:11.710Z,2.00
2023-05-07T12:40:39.648Z,2.60
2023-05-07T12:43:06.530Z,2.60
2023-05-07T12:45:37.511Z,2.30
2023-05-07T12:48:04.152Z,2.60
2023-05-07T12:50:34.249Z,2.57
2023-05-07T12:53:00.967Z,2.20
2023-05-07T12:55:32.675Z,1.77
2023-05-07T12:58:02.124Z,1.73
2023-05-07T13:00:38.672Z,1.93
2023-05-07T13:03:05.977Z,1.67
2023-05-07T13:05:33.401Z,2.43
2023-05-07T13:08:00.410Z,2.30
2023-05-07T13:10:27.811Z,3.30
2023-05-07T13:12:54.367Z,3.77
2023-05-07T13:15:21.187Z,3.90
2023-05-07T13:17:48.143Z,5.33
2023-05-07T13:20:15.153Z,4.40
2023-05-07T13:22:41.759Z,3.43
2023-05-07T13:25:08.626Z,2.53
2023-05-07T13:27:38.094Z,3.10
2023-05-07T13:30:05.770Z,3.90
2023-05-07T13:32:32.618Z,2.00
2023-05-07T13:34:59.447Z,2.40
2023-05-07T13:37:26.068Z,1.90
2023-05-07T13:39:52.620Z,1.57
2023-05-07T13:42:19.235Z,1.47
2023-05-07T13:44:46.539Z,1.10
2023-05-07T13:47:13.282Z,1.53
2023-05-07T13:49:39.781Z,2.13
2023-05-07T13:52:06.347Z,1.97
2023-05-07T13:54:33.378Z,2.03
2023-05-07T13:56:59.991Z,2.00
2023-05-07T13:59:26.549Z,2.27
2023-05-07T14:01:53.155Z,2.23
2023-05-07T14:04:19.645Z,1.40
2023-05-07T14:06:46.464Z,1.10
2023-05-07T14:09:14.312Z,1.13
2023-05-07T14:11:41.236Z,1.33
2023-05-07T14:14:07.872Z,1.37
2023-05-07T14:16:34.613Z,1.47
2023-05-07T14:19:01.274Z,1.17
2023-05-07T14:21:28.248Z,1.20
2023-05-07T14:23:54.902Z,1.00
2023-05-07T14:26:21.825Z,1.00
2023-05-07T14:28:48.559Z,1.10
2023-05-07T14:31:15.409Z,1.30
2023-05-07T14:33:42.545Z,1.20
2023-05-07T14:36:09.224Z,1.23
2023-05-07T14:38:35.871Z,1.20
2023-05-07T14:41:02.472Z,1.07
2023-05-07T14:43:29.186Z,1.20
2023-05-07T14:45:56.828Z,1.43
2023-05-07T14:48:23.517Z,1.20
2023-05-07T14:50:50.391Z,1.43
2023-05-07T14:53:17.019Z,1.30
2023-05-07T14:55:43.638Z,1.77
2023-05-07T14:58:11.319Z,2.20
2023-05-07T15:00:38.037Z,1.70
2023-05-07T15:03:09.387Z,1.63
2023-05-07T15:05:37.627Z,1.67
2023-05-07T15:08:04.269Z,1.30
2023-05-07T15:10:31.031Z,1.37
2023-05-07T15:12:57.594Z,1.43
2023-05-07T15:15:24.179Z,1.43
2023-05-07T15:17:51.482Z,1.70
2023-05-07T15:20:18.671Z,1.60
2023-05-07T15:22:45.573Z,1.93
2023-05-07T15:25:12.829Z,1.70
2023-05-07T15:27:39.635Z,2.30
2023-05-07T15:30:07.096Z,2.00
2023-05-07T15:32:33.699Z,2.53
2023-05-07T15:35:00.333Z,2.00
2023-05-07T15:37:26.947Z,1.90
2023-05-07T15:39:53.508Z,1.73
2023-05-07T15:42:20.099Z,2.30
2023-05-07T15:44:47.275Z,4.70
2023-05-07T15:47:15.426Z,3.10
2023-05-07T15:49:42.367Z,3.20
2023-05-07T15:52:14.667Z,3.27
2023-05-07T15:54:41.274Z,3.37
2023-05-07T15:57:08.005Z,3.93
2023-05-07T15:59:36.092Z,4.40
2023-05-07T16:02:02.844Z,6.53
2023-05-07T16:04:29.690Z,7.17
2023-05-07T16:06:56.744Z,6.47
2023-05-07T16:09:25.054Z,7.27
2023-05-07T16:11:51.787Z,6.40
2023-05-07T16:14:18.449Z,6.40
2023-05-07T16:16:45.075Z,8.10
2023-05-07T16:19:11.814Z,7.50
2023-05-07T16:21:38.575Z,7.17
2023-05-07T16:24:05.582Z,8.17
2023-05-07T16:26:32.282Z,7.67
2023-05-07T16:28:58.852Z,8.33
2023-05-07T16:31:25.991Z,8.90
2023-05-07T16:33:52.672Z,7.97
2023-05-07T16:36:19.789Z,8.53
2023-05-07T16:38:46.906Z,8.67
2023-05-07T16:41:13.557Z,7.50
2023-05-07T16:43:40.272Z,8.37
2023-05-07T16:46:06.997Z,7.73
2023-05-07T16:48:33.563Z,7.87
2023-05-07T16:51:00.311Z,8.30
2023-05-07T16:53:27.005Z,8.67
2023-05-07T16:55:56.417Z,9.17
2023-05-07T16:58:23.241Z,9.13
2023-05-07T17:00:51.236Z,8.40
2023-05-07T17:03:18.828Z,11.23
2023-05-07T17:05:45.796Z,8.43
2023-05-07T17:08:13.932Z,8.63
2023-05-07T17:10:41.140Z,8.30
2023-05-07T17:13:07.920Z,8.50
2023-05-07T17:15:34.582Z,8.90
2023-05-07T17:18:01.174Z,8.73
2023-05-07T17:20:27.790Z,9.77
2023-05-07T17:22:55.501Z,9.13
2023-05-07T17:25:23.296Z,7.47
2023-05-07T17:27:49.873Z,8.40
2023-05-07T17:30:16.594Z,8.23
2023-05-07T17:32:43.147Z,8.47
2023-05-07T17:35:09.896Z,9.73
2023-05-07T17:37:36.641Z,8.40
2023-05-07T17:40:03.453Z,8.47
2023-05-07T17:42:31.875Z,8.20
2023-05-07T17:44:58.810Z,8.30
2023-05-07T17:47:25.417Z,9.87
2023-05-07T17:49:52.021Z,8.77
2023-05-07T17:52:18.557Z,8.83
2023-05-07T17:54:45.113Z,9.00
2023-05-07T17:57:11.745Z,8.47
2023-05-07T17:59:39.164Z,9.53
2023-05-07T18:02:06.059Z,9.33
2023-05-07T18:04:32.963Z,9.07
2023-05-07T18:06:59.534Z,9.60
2023-05-07T18:09:26.232Z,8.87
2023-05-07T18:11:52.928Z,8.40
2023-05-07T18:14:24.442Z,9.57
2023-05-07T18:16:51.046Z,8.70
2023-05-07T18:19:17.754Z,9.10
2023-05-07T18:21:44.421Z,8.30
2023-05-07T18:24:11.362Z,8.13
2023-05-07T18:26:37.877Z,9.33
2023-05-07T18:29:04.333Z,8.50
2023-05-07T18:31:30.872Z,9.60
2023-05-07T18:33:57.481Z,9.03
2023-05-07T18:36:25.165Z,8.97
2023-05-07T18:38:52.426Z,9.07
2023-05-07T18:41:19.064Z,8.97
2023-05-07T18:43:45.667Z,8.40
2023-05-07T18:46:12.362Z,8.47
2023-05-07T18:48:39.044Z,10.60
2023-05-07T18:51:05.704Z,10.40
2023-05-07T18:53:32.316Z,9.97
2023-05-07T18:56:00.238Z,8.30
2023-05-07T18:58:26.747Z,10.37
2023-05-07T19:00:53.455Z,9.73
2023-05-07T19:03:20.163Z,10.27
2023-05-07T19:05:46.782Z,10.50
2023-05-07T19:08:13.723Z,10.23
2023-05-07T19:10:40.312Z,11.00
2023-05-07T19:13:06.984Z,11.37
2023-05-07T19:15:33.723Z,10.83
2023-05-07T19:18:00.390Z,11.03
2023-05-07T19:20:27.331Z,10.70
2023-05-07T19:22:54.093Z,10.90
2023-05-07T19:25:20.795Z,10.70
2023-05-07T19:27:48.155Z,10.53
2023-05-07T19:30:14.927Z,11.40
2023-05-07T19:32:41.596Z,11.57
2023-05-07T19:35:08.164Z,11.20
2023-05-07T19:37:34.907Z,13.87
2023-05-07T19:40:05.141Z,14.10
2023-05-07T19:42:31.958Z,11.50
2023-05-07T19:44:58.418Z,11.23
2023-05-07T19:47:25.196Z,12.20
2023-05-07T19:49:51.747Z,13.83
2023-05-07T19:52:18.332Z,13.17
2023-05-07T19:54:44.935Z,13.13
2023-05-07T19:57:11.617Z,13.03
2023-05-07T19:59:38.301Z,13.63
2023-05-07T20:02:05.121Z,14.57
2023-05-07T20:04:33.554Z,13.03
2023-05-07T20:07:00.252Z,14.70
2023-05-07T20:09:26.843Z,16.27
2023-05-07T20:11:53.410Z,15.27
2023-05-07T20:14:20.132Z,15.80
2023-05-07T20:16:46.734Z,17.63
2023-05-07T20:19:13.393Z,16.67
2023-05-07T20:21:39.980Z,16.40
2023-05-07T20:24:07.317Z,19.27
2023-05-07T20:26:33.964Z,17.30
2023-05-07T20:29:00.838Z,18.67
2023-05-07T20:31:27.538Z,18.03
2023-05-07T20:33:54.254Z,16.87
2023-05-07T20:36:20.777Z,17.10
2023-05-07T20:38:47.387Z,18.30
2023-05-07T20:41:14.324Z,16.63
2023-05-07T20:43:41.067Z,19.63
2023-05-07T20:46:07.940Z,17.50
2023-05-07T20:48:34.862Z,18.67
2023-05-07T20:51:02.104Z,18.60
2023-05-07T20:53:29.644Z,20.10
2023-05-07T20:55:56.562Z,19.07
2023-05-07T20:58:26.079Z,19.97
2023-05-07T21:00:53.134Z,20.90
2023-05-07T21:03:20.421Z,21.17
2023-05-07T21:05:53.918Z,20.73
2023-05-07T21:08:20.510Z,18.70
2023-05-07T21:10:47.470Z,19.13
2023-05-07T21:13:14.419Z,19.70
2023-05-07T21:15:42.066Z,20.97
2023-05-07T21:18:09.251Z,22.20
2023-05-07T21:20:36.434Z,21.27
2023-05-07T21:23:03.149Z,21.37
2023-05-07T21:25:29.847Z,22.80
2023-05-07T21:27:56.838Z,19.67
2023-05-07T21:30:23.436Z,22.30
2023-05-07T21:32:50.084Z,22.70
2023-05-07T21:35:17.057Z,22.80
2023-05-07T21:37:43.680Z,21.90
2023-05-07T21:40:10.651Z,22.37
2023-05-07T21:42:37.530Z,19.33
2023-05-07T21:45:07.429Z,23.93
2023-05-07T21:47:34.057Z,23.87
2023-05-07T21:50:01.207Z,25.17
2023-05-07T21:52:27.743Z,26.17
2023-05-07T21:54:54.558Z,27.63
2023-05-07T21:57:21.327Z,23.37
2023-05-07T21:59:47.969Z,24.83
2023-05-07T22:02:14.668Z,27.37
2023-05-07T22:04:41.361Z,26.97
2023-05-07T22:07:07.859Z,30.37
2023-05-07T22:09:34.433Z,28.80
2023-05-07T22:12:01.199Z,26.47
2023-05-07T22:14:27.797Z,24.20
2023-05-07T22:16:54.784Z,25.60
2023-05-07T22:19:21.354Z,28.57
2023-05-07T22:21:47.842Z,30.10
2023-05-07T22:24:14.302Z,31.00
2023-05-07T22:26:40.858Z,30.43
2023-05-07T22:29:07.390Z,30.07
2023-05-07T22:31:34.040Z,27.90
2023-05-07T22:34:01.247Z,30.30
2023-05-07T22:36:27.864Z,28.30
2023-05-07T22:38:54.549Z,29.67
2023-05-07T22:41:22.546Z,31.93
2023-05-07T22:43:49.152Z,29.53
2023-05-07T22:46:15.949Z,31.67
2023-05-07T22:48:42.534Z,32.27
2023-05-07T22:51:12.639Z,30.93
2023-05-07T22:53:39.132Z,30.27
2023-05-07T22:56:06.309Z,33.57
2023-05-07T22:58:33.150Z,32.07
2023-05-07T23:01:00.054Z,32.53
2023-05-07T23:03:27.044Z,33.23
2023-05-07T23:05:53.804Z,31.27
2023-05-07T23:08:20.344Z,36.07
2023-05-07T23:10:47.102Z,35.90
2023-05-07T23:13:17.194Z,39.20
2023-05-07T23:15:44.012Z,39.00
2023-05-07T23:18:10.647Z,40.07
2023-05-07T23:20:37.374Z,52.87
2023-05-07T23:23:03.832Z,65.10
2023-05-07T23:25:30.483Z,73.30
2023-05-07T23:27:57.057Z,67.30
2023-05-07T23:30:23.766Z,67.13
2023-05-07T23:32:50.481Z,64.30
2023-05-07T23:35:17.230Z,59.57
2023-05-07T23:37:44.015Z,51.67
2023-05-07T23:40:10.872Z,52.40
2023-05-07T23:42:37.556Z,52.73
2023-05-07T23:45:04.386Z,48.03
2023-05-07T23:47:31.955Z,45.53
2023-05-07T23:49:58.545Z,41.70
2023-05-07T23:52:25.091Z,44.77
2023-05-07T23:54:51.661Z,45.10
2023-05-07T23:57:18.794Z,44.07
2023-05-07T23:59:45.483Z,42.60
